Time;durP1;ratioP1;P1;durP2;ratioP2;P2;SDS_P1;SDS_P2;PMS_P1;PMS_P2;Temp;Humidity;BMP_temperature;BMP_pressure;BME280_temperature;BME280_humidity;BME280_pressure;Samples;Min_cycle;Max_cycle;Signal;HPM_P1;HPM_P2
2022/05/04 00:00:19;;;;;;;10.10;5.57;;;10.00;1.00;;;;;;5030817;28;20654;-59
2022/05/04 00:02:46;;;;;;;10.47;5.80;;;10.00;1.00;;;;;;5047909;28;20188;-59
2022/05/04 00:05:13;;;;;;;11.10;6.30;;;10.00;1.00;;;;;;5048605;28;20902;-59
2022/05/04 00:07:44;;;;;;;14.07;6.57;;;9.90;1.00;;;;;;5046747;28;20207;-59
2022/05/04 00:10:13;;;;;;;10.40;5.70;;;9.90;1.00;;;;;;5047487;28;20200;-61
2022/05/04 00:12:40;;;;;;;11.40;6.57;;;9.90;1.00;;;;;;5031298;28;20196;-59
2022/05/04 00:15:08;;;;;;;8.63;5.73;;;9.90;1.00;;;;;;5022389;28;20263;-59
2022/05/04 00:17:35;;;;;;;15.40;6.83;;;9.80;1.00;;;;;;5029922;28;20303;-59
2022/05/04 00:20:06;;;;;;;12.83;6.17;;;9.80;1.00;;;;;;5044047;28;20560;-59
2022/05/04 00:22:33;;;;;;;13.93;6.70;;;9.70;1.00;;;;;;5046662;28;20395;-60
2022/05/04 00:25:03;;;;;;;13.97;6.47;;;9.70;1.00;;;;;;5047420;28;20204;-60
2022/05/04 00:27:31;;;;;;;12.77;6.33;;;9.70;1.00;;;;;;5029462;28;20263;-60
2022/05/04 00:30:01;;;;;;;9.10;5.93;;;9.70;1.00;;;;;;5029427;28;20196;-60
2022/05/04 00:32:28;;;;;;;13.33;6.20;;;9.60;1.00;;;;;;5027769;28;20187;-60
2022/05/04 00:34:56;;;;;;;11.30;6.50;;;9.70;1.00;;;;;;5029898;28;20200;-59
2022/05/04 00:37:23;;;;;;;9.07;5.70;;;9.60;1.00;;;;;;5037570;28;20199;-63
2022/05/04 00:39:52;;;;;;;9.90;5.57;;;9.60;1.00;;;;;;5028082;28;20214;-61
2022/05/04 00:42:21;;;;;;;13.83;5.30;;;9.60;1.00;;;;;;5009649;28;20315;-60
2022/05/04 00:44:49;;;;;;;9.47;4.83;;;9.60;1.00;;;;;;5002982;28;20193;-60
2022/05/04 00:47:17;;;;;;;12.27;5.53;;;9.50;1.00;;;;;;5026464;28;20220;-60
2022/05/04 00:49:46;;;;;;;11.20;5.87;;;9.60;1.00;;;;;;5025701;28;20204;-59
2022/05/04 00:52:18;;;;;;;14.00;5.97;;;9.50;1.00;;;;;;5009165;28;20204;-60
2022/05/04 00:54:49;;;;;;;11.80;5.90;;;9.50;1.00;;;;;;5010467;28;20203;-60
2022/05/04 00:58:54;;;;;;;11.23;5.60;;;9.40;1.00;;;;;;5028300;28;20192;-60
2022/05/04 01:00:07;;;;;;;13.10;5.37;;;9.40;1.00;;;;;;5026572;28;20661;-60
2022/05/04 01:02:38;;;;;;;11.37;6.60;;;9.30;1.00;;;;;;5022844;28;20291;-59
2022/05/04 01:05:10;;;;;;;14.63;6.43;;;9.30;1.00;;;;;;5021967;28;20283;-59
2022/05/04 01:07:42;;;;;;;13.87;6.40;;;9.30;1.00;;;;;;5027264;28;20184;-59
2022/05/04 01:10:11;;;;;;;10.33;6.13;;;9.30;1.00;;;;;;5025318;28;20652;-59
2022/05/04 01:12:51;;;;;;;13.40;5.97;;;9.20;1.00;;;;;;5026850;28;20251;-60
2022/05/04 01:15:20;;;;;;;10.30;5.57;;;9.30;1.00;;;;;;5009606;28;20187;-60
2022/05/04 01:17:47;;;;;;;10.00;5.73;;;9.20;1.00;;;;;;5015472;28;20192;-60
2022/05/04 01:20:16;;;;;;;9.13;5.77;;;9.20;1.00;;;;;;5025263;28;20270;-59
2022/05/04 01:22:45;;;;;;;11.40;6.33;;;9.10;1.00;;;;;;5026510;28;20525;-59
2022/05/04 01:25:13;;;;;;;10.03;5.60;;;9.10;1.00;;;;;;5026009;28;20255;-60
2022/05/04 01:27:42;;;;;;;11.23;6.33;;;9.10;1.00;;;;;;5009480;28;20186;-59
2022/05/04 01:30:12;;;;;;;10.50;6.30;;;9.10;1.00;;;;;;5026537;28;20204;-59
2022/05/04 01:32:40;;;;;;;10.70;6.33;;;9.00;1.00;;;;;;5027561;28;20204;-59
2022/05/04 01:35:07;;;;;;;15.17;6.73;;;9.00;1.00;;;;;;5023942;28;20228;-59
2022/05/04 01:37:34;;;;;;;14.60;6.90;;;9.00;1.00;;;;;;5028632;28;20206;-59
2022/05/04 01:40:01;;;;;;;13.60;6.97;;;9.00;1.00;;;;;;5045659;28;20892;-59
2022/05/04 01:42:28;;;;;;;12.03;7.30;;;9.00;1.00;;;;;;5027962;28;20207;-64
2022/05/04 01:44:55;;;;;;;10.03;6.20;;;8.90;1.00;;;;;;5045033;28;20267;-59
2022/05/04 01:47:22;;;;;;;12.63;6.77;;;8.90;1.00;;;;;;5048644;28;20717;-59
2022/05/04 01:49:49;;;;;;;14.50;7.10;;;8.90;1.00;;;;;;5045253;28;20277;-59
2022/05/04 01:52:23;;;;;;;8.90;5.73;;;8.90;1.00;;;;;;5044886;28;20238;-60
2022/05/04 01:54:53;;;;;;;11.27;7.43;;;8.90;1.00;;;;;;5011044;28;20272;-60
2022/05/04 01:57:20;;;;;;;15.40;7.87;;;8.90;1.00;;;;;;5044185;28;20281;-60
2022/05/04 01:59:47;;;;;;;13.07;6.67;;;8.80;1.00;;;;;;5046725;28;20245;-60
2022/05/04 02:02:15;;;;;;;14.73;7.60;;;8.80;1.00;;;;;;5044944;28;20275;-59
2022/05/04 02:04:42;;;;;;;15.57;6.27;;;8.80;1.00;;;;;;5021644;28;20202;-59
2022/05/04 02:07:09;;;;;;;10.10;6.57;;;8.80;1.00;;;;;;5044042;28;20211;-60
2022/05/04 02:09:37;;;;;;;11.67;6.60;;;8.80;1.00;;;;;;5045814;28;20215;-59
2022/05/04 02:12:08;;;;;;;13.73;6.20;;;8.70;1.00;;;;;;5044574;28;20241;-60
2022/05/04 02:14:34;;;;;;;11.53;5.80;;;8.70;1.00;;;;;;5046151;28;20195;-60
2022/05/04 02:17:01;;;;;;;8.63;5.87;;;8.60;1.00;;;;;;5033448;28;20250;-61
2022/05/04 02:19:29;;;;;;;14.07;6.30;;;8.60;1.00;;;;;;5044265;28;20286;-60
2022/05/04 02:21:56;;;;;;;11.27;6.20;;;8.60;1.00;;;;;;5021382;28;20208;-60
2022/05/04 02:24:22;;;;;;;12.60;5.77;;;8.50;1.00;;;;;;5046825;28;20265;-60
2022/05/04 02:26:52;;;;;;;11.03;6.87;;;8.50;1.00;;;;;;5045128;28;20290;-60
2022/05/04 02:29:19;;;;;;;16.80;7.17;;;8.60;1.00;;;;;;5045984;28;20200;-60
2022/05/04 02:31:47;;;;;;;12.07;6.87;;;8.60;1.00;;;;;;5044946;28;20714;-60
2022/05/04 02:34:14;;;;;;;12.63;7.17;;;8.50;1.00;;;;;;5033539;28;20203;-60
2022/05/04 02:39:49;;;;;;;12.87;6.30;;;8.50;1.00;;;;;;4952601;28;20242;-59
2022/05/04 02:42:17;;;;;;;10.97;6.00;;;8.50;1.00;;;;;;4954868;28;20341;-60
2022/05/04 02:44:46;;;;;;;13.63;6.30;;;8.40;1.00;;;;;;4990765;28;20208;-60
2022/05/04 02:47:13;;;;;;;9.87;6.67;;;8.40;1.00;;;;;;5024413;28;20236;-60
2022/05/04 02:49:40;;;;;;;9.53;6.20;;;8.30;1.00;;;;;;5004595;28;20759;-59
2022/05/04 02:52:08;;;;;;;8.83;6.57;;;8.20;1.00;;;;;;5020341;28;20202;-59
2022/05/04 02:54:36;;;;;;;12.87;6.50;;;8.20;1.00;;;;;;5025371;28;20527;-59
2022/05/04 02:57:03;;;;;;;11.90;5.97;;;8.20;1.00;;;;;;5025427;28;20224;-60
2022/05/04 02:59:30;;;;;;;10.20;6.53;;;8.10;1.00;;;;;;5006113;28;20722;-59
2022/05/04 03:04:43;;;;;;;15.43;7.00;;;8.10;1.00;;;;;;5024042;28;20715;-59
2022/05/04 03:07:10;;;;;;;14.40;6.97;;;8.20;1.00;;;;;;5025129;28;20208;-59
2022/05/04 03:09:36;;;;;;;13.40;7.57;;;8.20;1.00;;;;;;5025651;28;20192;-60
2022/05/04 03:12:04;;;;;;;15.00;7.50;;;8.10;1.00;;;;;;5022835;28;20236;-59
2022/05/04 03:14:31;;;;;;;19.50;8.00;;;8.10;1.00;;;;;;5023003;28;20196;-59
2022/05/04 03:16:58;;;;;;;15.20;7.80;;;8.00;1.00;;;;;;5023669;28;20189;-59
2022/05/04 03:19:26;;;;;;;16.00;8.00;;;8.00;1.00;;;;;;5006256;28;20208;-59
2022/05/04 03:21:53;;;;;;;17.37;7.33;;;8.00;1.00;;;;;;5023845;28;20239;-60
2022/05/04 03:24:21;;;;;;;15.40;8.40;;;7.90;1.00;;;;;;5006555;28;20224;-59
2022/05/04 03:26:48;;;;;;;13.77;7.40;;;7.90;1.00;;;;;;5016777;28;20295;-62
2022/05/04 03:29:15;;;;;;;14.23;7.77;;;7.90;1.00;;;;;;5012912;28;20200;-59
2022/05/04 03:31:42;;;;;;;18.53;7.33;;;7.90;1.00;;;;;;5021025;28;20286;-59
2022/05/04 03:34:09;;;;;;;12.67;7.10;;;7.90;1.00;;;;;;5023367;28;20212;-59
2022/05/04 03:36:37;;;;;;;13.20;7.57;;;7.90;3.40;;;;;;5019776;28;20208;-59
2022/05/04 03:39:05;;;;;;;13.10;8.07;;;7.90;1.00;;;;;;5037576;28;20381;-59
2022/05/04 03:41:32;;;;;;;15.43;7.50;;;7.80;1.00;;;;;;5042293;28;20268;-60
2022/05/04 03:44:00;;;;;;;14.20;7.50;;;7.80;1.00;;;;;;5033569;28;20271;-59
2022/05/04 03:46:28;;;;;;;13.27;7.43;;;7.80;1.00;;;;;;5044496;28;20215;-59
2022/05/04 03:48:58;;;;;;;13.33;7.17;;;7.80;1.00;;;;;;5044454;28;20234;-59
2022/05/04 03:51:25;;;;;;;13.27;6.97;;;7.80;1.00;;;;;;5047692;28;20621;-59
2022/05/04 03:53:53;;;;;;;12.77;6.87;;;7.70;1.00;;;;;;5027717;28;20294;-58
2022/05/04 03:56:21;;;;;;;10.83;7.17;;;7.60;1.00;;;;;;5029628;28;20748;-59
2022/05/04 03:58:48;;;;;;;12.67;6.83;;;7.50;36.30;;;;;;5047425;28;20279;-59
2022/05/04 04:01:15;;;;;;;14.60;7.33;;;7.40;94.50;;;;;;5027195;28;20242;-59
2022/05/04 04:03:42;;;;;;;15.53;7.60;;;7.40;99.90;;;;;;5047352;28;20203;-60
2022/05/04 04:06:09;;;;;;;13.47;7.80;;;7.50;97.40;;;;;;5010135;28;20277;-59
2022/05/04 04:08:37;;;;;;;13.40;7.40;;;7.50;62.80;;;;;;5023393;28;20199;-59
2022/05/04 04:11:04;;;;;;;19.67;7.63;;;7.60;44.20;;;;;;5029714;28;20301;-60
2022/05/04 04:13:31;;;;;;;15.47;7.80;;;7.60;36.60;;;;;;5045871;28;20180;-60
2022/05/04 04:15:58;;;;;;;13.50;7.60;;;7.70;29.60;;;;;;5014070;28;20208;-59
2022/05/04 04:18:26;;;;;;;17.13;7.90;;;7.60;43.40;;;;;;5046613;28;20729;-59
2022/05/04 04:23:43;;;;;;;14.43;7.07;;;7.70;28.70;;;;;;5047076;28;20183;-59
2022/05/04 04:26:12;;;;;;;14.87;7.43;;;7.80;24.90;;;;;;5046170;28;20799;-59
2022/05/04 04:28:39;;;;;;;14.67;7.77;;;7.80;1.00;;;;;;5046786;28;20275;-60
2022/05/04 04:31:09;;;;;;;15.33;7.67;;;8.00;1.00;;;;;;5046942;28;20587;-60
2022/05/04 04:33:37;;;;;;;12.70;7.13;;;8.10;1.00;;;;;;5026511;28;20645;-59
2022/05/04 04:36:05;;;;;;;11.73;7.20;;;8.20;1.00;;;;;;5047520;28;20197;-59
2022/05/04 04:38:32;;;;;;;16.20;7.23;;;8.20;1.00;;;;;;5047359;28;20239;-58
2022/05/04 04:40:59;;;;;;;18.23;7.50;;;8.20;1.00;;;;;;5052144;28;20198;-59
2022/05/04 04:43:26;;;;;;;13.83;6.63;;;8.60;1.00;;;;;;5032534;28;20202;-60
2022/05/04 04:45:53;;;;;;;11.63;6.77;;;9.10;1.00;;;;;;5045503;28;20184;-60
2022/05/04 04:48:21;;;;;;;14.17;6.93;;;9.40;1.00;;;;;;5049010;28;20561;-60
2022/05/04 04:50:49;;;;;;;19.13;6.63;;;10.00;1.00;;;;;;5047521;28;20547;-59
2022/05/04 04:53:19;;;;;;;10.93;6.00;;;10.60;1.00;;;;;;5035422;28;20204;-60
2022/05/04 04:55:46;;;;;;;11.60;6.87;;;11.00;1.00;;;;;;5031083;28;20639;-58
2022/05/04 04:58:14;;;;;;;11.53;6.70;;;11.60;1.00;;;;;;5047541;28;20282;-59
2022/05/04 05:00:41;;;;;;;13.53;6.10;;;11.90;1.00;;;;;;5027267;28;20291;-59
2022/05/04 05:03:09;;;;;;;11.17;5.93;;;12.50;1.00;;;;;;5044460;28;20647;-58
2022/05/04 05:05:41;;;;;;;12.73;6.60;;;12.80;1.00;;;;;;5029251;28;20629;-59
2022/05/04 05:08:09;;;;;;;12.63;6.90;;;12.70;1.00;;;;;;5043383;28;20266;-59
2022/05/04 05:10:36;;;;;;;13.83;6.13;;;13.30;1.00;;;;;;5045630;28;20196;-59
2022/05/04 05:13:03;;;;;;;10.37;6.53;;;13.90;1.00;;;;;;5027412;28;20238;-60
2022/05/04 05:18:20;;;;;;;14.60;6.77;;;14.10;99.90;;;;;;5044916;28;20196;-59
2022/05/04 05:20:47;;;;;;;12.77;6.10;;;13.90;99.90;;;;;;5046118;28;20206;-59
2022/05/04 05:23:24;;;;;;;15.73;6.00;;;14.10;99.90;;;;;;5047531;28;20192;-59
2022/05/04 05:25:51;;;;;;;16.37;6.17;;;14.70;99.90;;;;;;5046429;28;20602;-58
2022/05/04 05:28:19;;;;;;;11.30;5.90;;;15.10;99.90;;;;;;5046570;28;20227;-58
2022/05/04 05:30:46;;;;;;;16.67;6.50;;;15.70;99.90;;;;;;5048687;28;20195;-58
2022/05/04 05:33:13;;;;;;;15.60;6.00;;;16.00;99.90;;;;;;5046728;28;20214;-59
2022/05/04 05:35:40;;;;;;;11.67;5.30;;;16.40;99.90;;;;;;5045113;28;20265;-59
2022/05/04 05:38:08;;;;;;;16.40;5.53;;;16.30;99.90;;;;;;5043898;28;20241;-58
2022/05/04 05:40:35;;;;;;;12.63;5.38;;;16.60;99.90;;;;;;5045893;28;20583;-59
2022/05/04 05:43:02;;;;;;;9.95;5.50;;;16.80;99.90;;;;;;5028650;28;20646;-59
2022/05/04 05:45:30;;;;;;;13.60;5.93;;;17.20;99.90;;;;;;5046787;28;20672;-60
2022/05/04 05:47:57;;;;;;;13.02;5.55;;;17.40;99.90;;;;;;5043737;28;20263;-60
2022/05/04 05:50:24;;;;;;;13.23;5.07;;;18.10;99.90;;;;;;5019957;28;20223;-59
2022/05/04 05:52:51;;;;;;;11.18;5.45;;;18.50;99.90;;;;;;5031633;28;20214;-58
2022/05/04 05:55:18;;;;;;;10.80;5.05;;;19.10;99.90;;;;;;5044683;28;20216;-59
2022/05/04 05:57:45;;;;;;;12.48;5.85;;;19.60;99.90;;;;;;5049809;28;20677;-61
2022/05/04 06:00:13;;;;;;;9.88;5.10;;;19.80;99.90;;;;;;5048707;28;20288;-59
2022/05/04 06:02:40;;;;;;;11.02;5.80;;;19.40;99.90;;;;;;5029329;28;20301;-60
2022/05/04 06:05:07;;;;;;;12.55;5.40;;;20.20;99.90;;;;;;5046670;28;20262;-59
2022/05/04 06:07:37;;;;;;;12.02;5.82;;;20.80;99.90;;;;;;5047247;28;20794;-58
2022/05/04 06:10:05;;;;;;;14.70;5.85;;;20.80;99.90;;;;;;5051601;28;20277;-59
2022/05/04 06:12:35;;;;;;;11.25;5.43;;;20.60;99.90;;;;;;5046437;28;20933;-59
2022/05/04 06:15:02;;;;;;;13.10;5.18;;;20.70;99.90;;;;;;5030801;28;20191;-58
2022/05/04 06:17:29;;;;;;;12.68;5.95;;;21.50;99.90;;;;;;5044965;28;20203;-59
2022/05/04 06:19:56;;;;;;;11.43;5.10;;;22.40;99.90;;;;;;5027707;28;20207;-59
2022/05/04 06:22:23;;;;;;;9.25;4.88;;;22.60;99.90;;;;;;5045303;28;20192;-59
2022/05/04 06:24:50;;;;;;;15.82;5.35;;;23.40;99.90;;;;;;5042843;28;20254;-60
2022/05/04 06:27:17;;;;;;;10.45;5.07;;;23.40;99.90;;;;;;5047245;28;20345;-60
2022/05/04 06:35:15;;;;;;;14.25;6.13;;;21.40;99.90;;;;;;5047470;28;20567;-59
2022/05/04 06:37:42;;;;;;;11.50;5.32;;;20.60;99.90;;;;;;5041822;28;20235;-60
2022/05/04 06:40:10;;;;;;;11.18;5.13;;;21.30;99.90;;;;;;5047026;28;20650;-58
2022/05/04 06:42:37;;;;;;;11.82;5.03;;;23.10;99.90;;;;;;5048940;28;20195;-59
2022/05/04 06:45:06;;;;;;;12.00;5.57;;;23.40;99.90;;;;;;5048258;28;20187;-59
2022/05/04 06:47:33;;;;;;;11.95;5.65;;;23.40;99.90;;;;;;5029093;28;20385;-65
2022/05/04 06:50:00;;;;;;;13.20;5.90;;;24.50;99.90;;;;;;5042312;28;20210;-59
2022/05/04 06:52:27;;;;;;;12.57;4.68;;;24.50;99.90;;;;;;5042389;28;20656;-58
2022/05/04 06:54:54;;;;;;;14.05;4.72;;;26.20;99.90;;;;;;5042275;28;20192;-59
2022/05/04 06:57:21;;;;;;;15.05;5.40;;;27.00;99.90;;;;;;5044679;28;20299;-58
2022/05/04 06:59:49;;;;;;;13.98;5.85;;;26.60;99.90;;;;;;5046916;28;20199;-58
2022/05/04 07:02:17;;;;;;;14.48;5.70;;;27.70;99.90;;;;;;5052688;28;20229;-59
2022/05/04 07:04:44;;;;;;;12.75;6.10;;;26.80;99.90;;;;;;5049419;28;20183;-58
2022/05/04 07:07:11;;;;;;;10.50;4.97;;;27.50;99.90;;;;;;5045451;28;20208;-58
2022/05/04 07:09:38;;;;;;;13.73;6.10;;;28.10;99.90;;;;;;5048388;28;20215;-58
2022/05/04 07:12:05;;;;;;;13.25;5.43;;;29.20;99.90;;;;;;5042653;28;20199;-59
2022/05/04 07:14:32;;;;;;;9.68;5.10;;;28.70;99.90;;;;;;5050513;28;20261;-58
2022/05/04 07:16:59;;;;;;;12.95;5.18;;;29.00;99.90;;;;;;5046712;28;20239;-59
2022/05/04 07:19:26;;;;;;;14.55;5.72;;;30.20;99.90;;;;;;5046868;28;20261;-59
2022/05/04 07:21:53;;;;;;;9.93;4.78;;;28.90;99.90;;;;;;5045797;28;20207;-59
2022/05/04 07:24:20;;;;;;;12.73;5.40;;;29.20;99.90;;;;;;5023428;28;20510;-58
2022/05/04 07:26:47;;;;;;;10.00;4.97;;;30.00;99.90;;;;;;5051291;28;20204;-58
2022/05/04 07:29:14;;;;;;;10.45;5.10;;;31.10;99.90;;;;;;5030021;28;20196;-58
2022/05/04 07:31:42;;;;;;;9.18;4.45;;;30.70;99.90;;;;;;5051056;28;20195;-58
2022/05/04 07:34:11;;;;;;;13.07;5.13;;;31.50;99.90;;;;;;5050492;28;20200;-59
2022/05/04 07:36:39;;;;;;;14.13;5.47;;;32.30;99.90;;;;;;5052091;28;20195;-59
2022/05/04 07:39:06;;;;;;;11.77;5.13;;;32.60;99.90;;;;;;5053619;28;20235;-58
2022/05/04 07:44:20;;;;;;;11.63;5.75;;;31.70;99.90;;;;;;5047738;28;20266;-59
2022/05/04 07:46:48;;;;;;;9.02;4.88;;;31.40;99.90;;;;;;5034965;28;20663;-63
2022/05/04 07:49:16;;;;;;;12.00;5.03;;;32.10;99.90;;;;;;5050235;28;20203;-58
2022/05/04 07:51:46;;;;;;;11.52;5.47;;;32.40;99.90;;;;;;5047945;28;20298;-58
2022/05/04 07:54:13;;;;;;;11.30;5.10;;;32.80;99.90;;;;;;5033626;28;20203;-59
2022/05/04 07:56:40;;;;;;;15.65;9.23;;;32.50;99.90;;;;;;5046462;28;20220;-59
2022/05/04 07:59:07;;;;;;;9.35;5.15;;;33.10;99.90;;;;;;5031769;28;20246;-59
2022/05/04 08:04:21;;;;;;;14.40;5.47;;;34.70;99.90;;;;;;5045219;28;20201;-58
2022/05/04 08:06:48;;;;;;;12.27;5.03;;;35.00;99.90;;;;;;5051451;28;20195;-59
2022/05/04 08:09:16;;;;;;;12.32;5.47;;;34.30;99.90;;;;;;5048421;28;20230;-58
2022/05/04 08:11:44;;;;;;;14.57;6.70;;;33.20;99.90;;;;;;5047263;28;20266;-58
2022/05/04 08:14:12;;;;;;;15.25;5.60;;;32.10;99.90;;;;;;5024710;28;20821;-58
2022/05/04 08:16:42;;;;;;;12.00;5.32;;;32.20;99.90;;;;;;5050476;28;20274;-59
2022/05/04 08:19:16;;;;;;;9.70;5.15;;;32.40;99.90;;;;;;5052216;28;20222;-59
2022/05/04 08:21:43;;;;;;;8.48;4.47;;;34.30;99.90;;;;;;5051025;28;20203;-59
2022/05/04 08:24:10;;;;;;;12.13;5.03;;;35.40;99.90;;;;;;5049381;28;20261;-59
2022/05/04 08:26:42;;;;;;;9.48;5.03;;;36.00;99.90;;;;;;5051215;28;20191;-59
2022/05/04 08:29:09;;;;;;;14.30;6.13;;;36.90;99.90;;;;;;5035955;28;20231;-60
2022/05/04 08:31:38;;;;;;;10.38;5.15;;;34.50;99.90;;;;;;5045486;28;20857;-59
2022/05/04 08:34:06;;;;;;;7.93;4.55;;;35.10;99.90;;;;;;5055214;28;20197;-59
2022/05/04 08:36:37;;;;;;;10.77;5.00;;;36.10;99.90;;;;;;5050384;28;20208;-59
2022/05/04 08:39:09;;;;;;;10.52;5.10;;;35.60;99.90;;;;;;5037129;28;20277;-59
2022/05/04 08:41:40;;;;;;;11.60;5.20;;;35.00;99.90;;;;;;5051854;28;20188;-59
2022/05/04 08:44:09;;;;;;;9.85;5.07;;;34.20;99.90;;;;;;5049905;28;20607;-59
2022/05/04 08:46:43;;;;;;;11.48;5.45;;;34.60;99.90;;;;;;5052571;28;20693;-58
2022/05/04 08:49:12;;;;;;;13.70;5.40;;;35.70;99.90;;;;;;5049527;28;20222;-59
2022/05/04 08:51:40;;;;;;;12.38;5.35;;;35.80;99.90;;;;;;5051181;28;20203;-58
2022/05/04 08:54:10;;;;;;;9.82;5.13;;;36.30;99.90;;;;;;5033659;28;20195;-58
2022/05/04 08:56:37;;;;;;;11.85;5.53;;;36.70;99.90;;;;;;5035681;28;20191;-59
2022/05/04 08:59:06;;;;;;;11.35;5.22;;;36.90;99.90;;;;;;5049890;28;20281;-60
2022/05/04 09:01:37;;;;;;;12.32;5.68;;;37.70;99.90;;;;;;5027010;28;20213;-62
2022/05/04 09:04:04;;;;;;;13.27;5.35;;;35.50;99.90;;;;;;5047769;28;20634;-60
2022/05/04 09:06:33;;;;;;;13.15;5.38;;;36.40;99.90;;;;;;5026901;28;20268;-58
2022/05/04 09:09:10;;;;;;;9.52;5.47;;;34.40;99.90;;;;;;5049007;28;20226;-59
2022/05/04 09:12:02;;;;;;;12.25;5.60;;;34.60;99.90;;;;;;5047584;28;20233;-59
2022/05/04 09:14:35;;;;;;;10.88;5.65;;;33.40;99.90;;;;;;5029059;28;20188;-59
2022/05/04 09:17:04;;;;;;;11.77;5.78;;;34.90;99.90;;;;;;5047807;28;20193;-59
2022/05/04 09:19:32;;;;;;;15.10;5.00;;;35.20;99.90;;;;;;5050593;28;20211;-60
2022/05/04 09:21:59;;;;;;;10.40;5.88;;;36.20;99.90;;;;;;5048367;28;20263;-59
2022/05/04 09:24:28;;;;;;;12.20;5.82;;;34.80;99.90;;;;;;5035979;28;20544;-59
2022/05/04 09:26:58;;;;;;;13.52;5.50;;;35.70;99.90;;;;;;5052672;28;20788;-59
2022/05/04 09:29:37;;;;;;;11.77;4.78;;;34.80;99.90;;;;;;5055256;28;20245;-60
2022/05/04 09:32:14;;;;;;;11.90;5.20;;;35.20;99.90;;;;;;5054002;28;20286;-59
2022/05/04 09:34:50;;;;;;;13.02;5.32;;;35.40;99.90;;;;;;5052782;28;20192;-59
2022/05/04 09:45:51;;;;;;;11.68;5.53;;;35.20;99.90;;;;;;5030249;28;20195;-59
2022/05/04 09:48:30;;;;;;;10.30;5.38;;;35.60;99.90;;;;;;5027884;28;20199;-59
2022/05/04 09:51:06;;;;;;;11.98;5.93;;;36.10;99.90;;;;;;5030600;28;20263;-59
2022/05/04 09:53:35;;;;;;;9.00;5.55;;;36.00;99.90;;;;;;5026879;28;20195;-60
2022/05/04 09:56:03;;;;;;;12.40;5.78;;;37.10;99.90;;;;;;5009195;28;20668;-60
2022/05/04 09:58:31;;;;;;;12.57;6.35;;;36.50;99.90;;;;;;5028280;28;20682;-60
2022/05/04 10:00:59;;;;;;;12.50;6.05;;;36.20;99.90;;;;;;5034178;28;20390;-59
2022/05/04 10:03:26;;;;;;;12.90;6.78;;;34.10;99.90;;;;;;5009303;28;20752;-59
2022/05/04 10:05:55;;;;;;;10.38;5.47;;;32.60;99.90;;;;;;5026997;28;20260;-59
2022/05/04 10:08:23;;;;;;;11.32;6.40;;;33.60;99.90;;;;;;5011543;28;20233;-60
2022/05/04 10:10:52;;;;;;;14.82;6.15;;;34.20;99.90;;;;;;5010055;28;20239;-60
2022/05/04 10:13:21;;;;;;;11.82;5.90;;;34.80;99.90;;;;;;5025322;28;20203;-59
2022/05/04 10:15:53;;;;;;;10.02;6.30;;;35.10;99.90;;;;;;5025551;28;20599;-60
2022/05/04 10:18:32;;;;;;;13.02;5.55;;;35.50;99.90;;;;;;5022046;28;20873;-59
2022/05/04 10:21:15;;;;;;;8.40;5.90;;;35.70;99.90;;;;;;5018710;28;20198;-59
2022/05/04 10:23:54;;;;;;;15.38;6.70;;;36.20;99.90;;;;;;5024187;28;20191;-60
2022/05/04 10:26:35;;;;;;;11.20;6.60;;;35.10;99.90;;;;;;5013535;28;20356;-60
2022/05/04 10:32:09;;;;;;;12.63;6.72;;;35.20;99.90;;;;;;5028374;28;20245;-59
2022/05/04 10:34:42;;;;;;;10.23;6.38;;;32.60;99.90;;;;;;5030515;28;20191;-60
2022/05/04 10:37:09;;;;;;;8.60;6.45;;;33.70;99.90;;;;;;5031908;28;20507;-62
2022/05/04 10:39:40;;;;;;;9.25;6.07;;;34.10;99.90;;;;;;5034251;28;20264;-59
2022/05/04 10:42:45;;;;;;;14.65;7.47;;;34.20;99.90;;;;;;5051041;28;20190;-59
2022/05/04 10:45:13;;;;;;;12.18;7.55;;;30.80;99.90;;;;;;5030038;28;20265;-60
2022/05/04 10:47:41;;;;;;;13.15;8.27;;;29.30;99.90;;;;;;5044055;28;20202;-60
2022/05/04 10:50:08;;;;;;;11.70;7.35;;;27.70;99.90;;;;;;5046779;28;20191;-59
2022/05/04 10:52:47;;;;;;;13.23;6.57;;;28.40;99.90;;;;;;5046670;28;20286;-58
2022/05/04 10:55:16;;;;;;;11.55;7.32;;;30.40;99.90;;;;;;5052212;28;20187;-58
2022/05/04 10:57:43;;;;;;;11.55;8.07;;;31.50;99.90;;;;;;5032630;28;20199;-59
2022/05/04 11:00:30;;;;;;;12.55;8.32;;;28.50;99.90;;;;;;5055689;28;20229;-59
2022/05/04 11:03:00;;;;;;;15.52;8.20;;;26.70;99.90;;;;;;5056620;28;20190;-58
2022/05/04 11:05:45;;;;;;;12.45;8.55;;;27.50;99.90;;;;;;5058245;28;20673;-59
2022/05/04 11:08:24;;;;;;;12.65;8.98;;;29.10;99.90;;;;;;5052827;28;20261;-59
2022/05/04 11:10:52;;;;;;;14.07;9.20;;;28.80;99.90;;;;;;5051992;28;20511;-59
2022/05/04 11:13:20;;;;;;;12.57;8.13;;;28.60;99.90;;;;;;5053467;28;20261;-58
2022/05/04 11:15:53;;;;;;;12.88;8.45;;;28.60;99.90;;;;;;5054815;28;20718;-59
2022/05/04 11:18:20;;;;;;;16.10;8.25;;;29.00;99.90;;;;;;5051640;28;20534;-58
2022/05/04 11:20:47;;;;;;;15.43;8.75;;;30.20;99.90;;;;;;5053109;28;20566;-59
2022/05/04 11:23:23;;;;;;;12.32;8.32;;;31.40;99.90;;;;;;5038849;28;20694;-59
2022/05/04 11:25:50;;;;;;;12.60;8.77;;;30.30;99.90;;;;;;5048039;28;20192;-59
2022/05/04 11:28:19;;;;;;;11.02;8.70;;;30.10;99.90;;;;;;5047544;28;20211;-59
2022/05/04 11:30:52;;;;;;;14.32;8.65;;;29.10;99.90;;;;;;5029445;28;20581;-59
2022/05/04 11:33:19;;;;;;;13.32;9.18;;;28.60;99.90;;;;;;5051073;28;20521;-59
2022/05/04 11:35:55;;;;;;;11.32;8.23;;;29.00;99.90;;;;;;5051383;28;20213;-58
2022/05/04 11:38:22;;;;;;;12.10;8.07;;;30.50;99.90;;;;;;5053880;28;20234;-58
2022/05/04 11:40:50;;;;;;;12.40;9.35;;;30.70;99.90;;;;;;5051544;28;20206;-60
2022/05/04 11:43:27;;;;;;;12.48;9.63;;;30.10;99.90;;;;;;5054342;28;20329;-59
2022/05/04 11:45:55;;;;;;;13.63;9.98;;;29.20;99.90;;;;;;5057155;28;20277;-59
2022/05/04 11:48:25;;;;;;;15.32;10.00;;;28.70;99.90;;;;;;5055767;28;20207;-58
2022/05/04 11:50:52;;;;;;;11.57;9.52;;;28.40;99.90;;;;;;5052217;28;20250;-58
2022/05/04 11:53:22;;;;;;;17.10;9.90;;;28.00;99.90;;;;;;5050291;28;20645;-58
2022/05/04 11:55:52;;;;;;;11.82;9.63;;;27.60;99.90;;;;;;5050919;28;20237;-59
2022/05/04 11:58:19;;;;;;;17.83;13.15;;;27.10;99.90;;;;;;5051233;28;20187;-59
2022/05/04 12:00:45;;;;;;;14.48;9.77;;;26.90;99.90;;;;;;5046875;28;21196;-59
2022/05/04 12:03:13;;;;;;;14.27;10.18;;;26.60;99.90;;;;;;5052943;28;20191;-59
2022/05/04 12:05:41;;;;;;;16.50;11.07;;;26.20;99.90;;;;;;5044970;28;20207;-59
2022/05/04 12:08:09;;;;;;;14.18;10.07;;;24.20;99.90;;;;;;5030560;28;20265;-59
2022/05/04 12:10:39;;;;;;;14.80;10.63;;;25.00;99.90;;;;;;5047470;28;20691;-59
2022/05/04 12:13:06;;;;;;;14.85;11.00;;;25.60;99.90;;;;;;5044637;28;20684;-59
2022/05/04 12:15:34;;;;;;;12.10;10.85;;;27.10;99.90;;;;;;5052840;28;20263;-59
2022/05/04 12:18:03;;;;;;;13.05;10.68;;;27.50;99.90;;;;;;5051521;28;20184;-59
2022/05/04 12:20:34;;;;;;;15.98;11.38;;;27.80;99.90;;;;;;5051366;28;20208;-59
2022/05/04 12:23:03;;;;;;;14.98;13.13;;;28.30;99.90;;;;;;5054677;28;20626;-59
2022/05/04 12:25:31;;;;;;;17.40;12.57;;;28.10;99.90;;;;;;5035390;28;20192;-59
2022/05/04 12:27:58;;;;;;;17.88;12.10;;;27.90;99.90;;;;;;5043208;28;20199;-58
2022/05/04 12:33:13;;;;;;;14.65;12.43;;;27.70;99.90;;;;;;5049624;28;20275;-61
2022/05/04 12:35:43;;;;;;;17.15;12.50;;;26.00;99.90;;;;;;5063979;28;20215;-60
2022/05/04 12:38:19;;;;;;;18.70;12.52;;;26.40;99.90;;;;;;5056516;28;20234;-59
2022/05/04 12:40:49;;;;;;;17.00;12.63;;;26.40;99.90;;;;;;5063164;28;20186;-58
2022/05/04 12:43:30;;;;;;;19.13;13.60;;;25.80;99.90;;;;;;5066863;28;20190;-59
2022/05/04 12:45:57;;;;;;;15.82;13.02;;;25.30;99.90;;;;;;5046881;28;20231;-59
2022/05/04 12:48:30;;;;;;;20.77;13.98;;;25.70;99.90;;;;;;5069732;28;20202;-58
2022/05/04 12:50:58;;;;;;;17.42;13.52;;;26.40;99.90;;;;;;5071073;28;20187;-58
2022/05/04 12:53:26;;;;;;;16.38;12.98;;;26.70;99.90;;;;;;5069838;28;20240;-59
2022/05/04 12:58:40;;;;;;;18.08;14.00;;;25.60;99.90;;;;;;5063893;28;20202;-58
2022/05/04 13:01:07;;;;;;;17.20;13.88;;;25.50;99.90;;;;;;5069808;28;20282;-59
2022/05/04 13:03:37;;;;;;;17.73;13.93;;;25.30;99.90;;;;;;5068859;28;20725;-59
2022/05/04 13:06:04;;;;;;;16.15;13.38;;;24.00;99.90;;;;;;5054275;28;20297;-59
2022/05/04 13:08:31;;;;;;;17.38;13.18;;;24.20;99.90;;;;;;5068864;28;20627;-59
2022/05/04 13:10:58;;;;;;;19.85;13.98;;;24.60;99.90;;;;;;5053194;28;20190;-61
2022/05/04 13:13:26;;;;;;;16.83;13.77;;;24.70;99.90;;;;;;5071849;28;20194;-58
2022/05/04 13:15:53;;;;;;;18.55;13.77;;;24.20;99.90;;;;;;5070429;28;20187;-59
2022/05/04 13:18:21;;;;;;;19.45;14.07;;;24.00;99.90;;;;;;5033459;28;20248;-58
2022/05/04 13:20:49;;;;;;;19.33;15.00;;;23.60;99.90;;;;;;5068951;28;20883;-58
2022/05/04 13:23:16;;;;;;;19.30;13.90;;;23.30;99.90;;;;;;5064641;28;20692;-60
2022/05/04 13:25:43;;;;;;;17.90;13.68;;;23.20;99.90;;;;;;5066282;28;20279;-59
2022/05/04 13:28:13;;;;;;;15.63;12.77;;;23.70;99.90;;;;;;5070892;28;20201;-59
2022/05/04 13:30:41;;;;;;;18.20;13.95;;;24.10;99.90;;;;;;5040058;28;20261;-60